sensor_id;sensor_type;location;lat;lon;timestamp;temperature;humidity
12477;DHT22;6303;51.504;6.300;2023-03-31T00:01:59;22.60;55.30
12477;DHT22;6303;51.504;6.300;2023-03-31T00:04:26;22.60;55.30
12477;DHT22;6303;51.504;6.300;2023-03-31T00:06:56;22.60;55.30
12477;DHT22;6303;51.504;6.300;2023-03-31T00:09:25;22.60;55.30
12477;DHT22;6303;51.504;6.300;2023-03-31T00:11:54;22.60;55.30
12477;DHT22;6303;51.504;6.300;2023-03-31T00:14:22;22.60;55.30
12477;DHT22;6303;51.504;6.300;2023-03-31T00:16:49;22.60;55.30
12477;DHT22;6303;51.504;6.300;2023-03-31T00:19:16;22.60;55.40
12477;DHT22;6303;51.504;6.300;2023-03-31T00:21:46;22.60;55.30
12477;DHT22;6303;51.504;6.300;2023-03-31T00:24:16;22.60;55.30
12477;DHT22;6303;51.504;6.300;2023-03-31T00:26:44;22.60;55.30
12477;DHT22;6303;51.504;6.300;2023-03-31T00:29:12;22.60;55.30
12477;DHT22;6303;51.504;6.300;2023-03-31T00:31:39;22.60;55.30
12477;DHT22;6303;51.504;6.300;2023-03-31T00:34:07;22.60;55.30
12477;DHT22;6303;51.504;6.300;2023-03-31T00:36:34;22.60;55.30
12477;DHT22;6303;51.504;6.300;2023-03-31T00:39:12;22.60;55.30
12477;DHT22;6303;51.504;6.300;2023-03-31T00:41:40;22.60;55.30
12477;DHT22;6303;51.504;6.300;2023-03-31T00:44:11;22.60;55.30
12477;DHT22;6303;51.504;6.300;2023-03-31T00:46:43;22.60;55.20
12477;DHT22;6303;51.504;6.300;2023-03-31T00:49:17;22.60;55.20
12477;DHT22;6303;51.504;6.300;2023-03-31T00:51:47;22.60;55.20
12477;DHT22;6303;51.504;6.300;2023-03-31T00:54:17;22.60;55.20
12477;DHT22;6303;51.504;6.300;2023-03-31T00:56:48;22.60;55.20
12477;DHT22;6303;51.504;6.300;2023-03-31T00:59:19;22.60;55.10
12477;DHT22;6303;51.504;6.300;2023-03-31T01:01:48;22.60;55.10
12477;DHT22;6303;51.504;6.300;2023-03-31T01:04:18;22.60;55.60
12477;DHT22;6303;51.504;6.300;2023-03-31T01:06:54;22.60;55.00
12477;DHT22;6303;51.504;6.300;2023-03-31T01:09:28;22.60;55.00
12477;DHT22;6303;51.504;6.300;2023-03-31T01:12:00;22.60;55.00
12477;DHT22;6303;51.504;6.300;2023-03-31T01:14:29;22.60;55.10
12477;DHT22;6303;51.504;6.300;2023-03-31T01:16:57;22.60;55.10
12477;DHT22;6303;51.504;6.300;2023-03-31T01:19:31;22.60;55.00
12477;DHT22;6303;51.504;6.300;2023-03-31T01:22:26;22.60;55.00
12477;DHT22;6303;51.504;6.300;2023-03-31T01:25:26;22.60;55.00
12477;DHT22;6303;51.504;6.300;2023-03-31T01:28:04;22.60;55.00
12477;DHT22;6303;51.504;6.300;2023-03-31T01:31:04;22.60;55.10
12477;DHT22;6303;51.504;6.300;2023-03-31T01:37:18;22.60;55.00
12477;DHT22;6303;51.504;6.300;2023-03-31T01:40:25;22.60;55.10
12477;DHT22;6303;51.504;6.300;2023-03-31T01:43:00;22.60;55.10
12477;DHT22;6303;51.504;6.300;2023-03-31T01:45:38;22.60;55.10
12477;DHT22;6303;51.504;6.300;2023-03-31T01:48:12;22.60;55.20
12477;DHT22;6303;51.504;6.300;2023-03-31T01:50:46;22.60;55.10
12477;DHT22;6303;51.504;6.300;2023-03-31T01:53:18;22.60;55.10
12477;DHT22;6303;51.504;6.300;2023-03-31T01:55:54;22.60;55.20
12477;DHT22;6303;51.504;6.300;2023-03-31T01:58:27;22.50;55.10
12477;DHT22;6303;51.504;6.300;2023-03-31T02:01:01;22.50;55.10
12477;DHT22;6303;51.504;6.300;2023-03-31T02:03:35;22.60;55.20
12477;DHT22;6303;51.504;6.300;2023-03-31T02:06:07;22.50;55.20
12477;DHT22;6303;51.504;6.300;2023-03-31T02:08:39;22.50;55.20
12477;DHT22;6303;51.504;6.300;2023-03-31T02:11:09;22.50;55.20
12477;DHT22;6303;51.504;6.300;2023-03-31T02:13:38;22.50;55.20
12477;DHT22;6303;51.504;6.300;2023-03-31T02:16:12;22.50;55.20
12477;DHT22;6303;51.504;6.300;2023-03-31T02:18:43;22.50;55.20
12477;DHT22;6303;51.504;6.300;2023-03-31T02:21:13;22.50;55.30
12477;DHT22;6303;51.504;6.300;2023-03-31T02:23:43;22.50;55.70
12477;DHT22;6303;51.504;6.300;2023-03-31T02:26:14;22.50;55.10
12477;DHT22;6303;51.504;6.300;2023-03-31T02:28:42;22.50;55.10
12477;DHT22;6303;51.504;6.300;2023-03-31T02:31:21;22.50;55.00
12477;DHT22;6303;51.504;6.300;2023-03-31T02:33:49;22.50;55.10
12477;DHT22;6303;51.504;6.300;2023-03-31T02:36:16;22.50;55.10
12477;DHT22;6303;51.504;6.300;2023-03-31T02:38:47;22.50;55.00
12477;DHT22;6303;51.504;6.300;2023-03-31T02:41:17;22.50;55.10
12477;DHT22;6303;51.504;6.300;2023-03-31T02:43:44;22.50;55.10
12477;DHT22;6303;51.504;6.300;2023-03-31T02:46:12;22.50;55.10
12477;DHT22;6303;51.504;6.300;2023-03-31T02:48:42;22.50;55.00
12477;DHT22;6303;51.504;6.300;2023-03-31T03:00:44;22.50;55.20
12477;DHT22;6303;51.504;6.300;2023-03-31T03:03:26;22.50;55.10
12477;DHT22;6303;51.504;6.300;2023-03-31T03:06:00;22.50;55.10
12477;DHT22;6303;51.504;6.300;2023-03-31T03:08:52;22.50;55.20
12477;DHT22;6303;51.504;6.300;2023-03-31T03:11:29;22.50;55.20
12477;DHT22;6303;51.504;6.300;2023-03-31T03:14:03;22.50;55.20
12477;DHT22;6303;51.504;6.300;2023-03-31T03:16:36;22.50;55.10
12477;DHT22;6303;51.504;6.300;2023-03-31T03:19:06;22.40;55.20
12477;DHT22;6303;51.504;6.300;2023-03-31T03:21:33;22.40;55.20
12477;DHT22;6303;51.504;6.300;2023-03-31T03:24:00;22.50;55.20
12477;DHT22;6303;51.504;6.300;2023-03-31T03:26:27;22.40;55.20
12477;DHT22;6303;51.504;6.300;2023-03-31T03:28:55;22.40;55.10
12477;DHT22;6303;51.504;6.300;2023-03-31T03:31:23;22.40;55.10
12477;DHT22;6303;51.504;6.300;2023-03-31T03:33:52;22.40;55.20
12477;DHT22;6303;51.504;6.300;2023-03-31T03:36:19;22.40;55.10
12477;DHT22;6303;51.504;6.300;2023-03-31T03:38:47;22.40;55.10
12477;DHT22;6303;51.504;6.300;2023-03-31T03:41:14;22.40;55.10
12477;DHT22;6303;51.504;6.300;2023-03-31T03:43:41;22.40;55.20
12477;DHT22;6303;51.504;6.300;2023-03-31T03:46:08;22.40;55.10
12477;DHT22;6303;51.504;6.300;2023-03-31T03:48:35;22.40;55.20
12477;DHT22;6303;51.504;6.300;2023-03-31T03:51:04;21.80;54.90
12477;DHT22;6303;51.504;6.300;2023-03-31T03:53:32;22.40;55.10
12477;DHT22;6303;51.504;6.300;2023-03-31T03:55:59;22.40;55.10
12477;DHT22;6303;51.504;6.300;2023-03-31T03:58:26;22.40;55.10
12477;DHT22;6303;51.504;6.300;2023-03-31T04:00:53;22.40;55.20
12477;DHT22;6303;51.504;6.300;2023-03-31T04:03:21;22.40;55.10
12477;DHT22;6303;51.504;6.300;2023-03-31T04:05:48;22.40;55.10
12477;DHT22;6303;51.504;6.300;2023-03-31T04:08:17;22.40;55.20
12477;DHT22;6303;51.504;6.300;2023-03-31T04:10:45;22.40;55.20
12477;DHT22;6303;51.504;6.300;2023-03-31T04:13:14;22.40;55.20
12477;DHT22;6303;51.504;6.300;2023-03-31T04:15:41;22.40;55.20
12477;DHT22;6303;51.504;6.300;2023-03-31T04:18:09;22.40;55.20
12477;DHT22;6303;51.504;6.300;2023-03-31T04:20:48;22.40;55.20
12477;DHT22;6303;51.504;6.300;2023-03-31T04:23:21;22.40;55.10
12477;DHT22;6303;51.504;6.300;2023-03-31T04:25:51;22.40;55.10
12477;DHT22;6303;51.504;6.300;2023-03-31T04:28:18;22.40;55.10
12477;DHT22;6303;51.504;6.300;2023-03-31T04:30:45;22.40;55.10
12477;DHT22;6303;51.504;6.300;2023-03-31T04:33:13;22.40;55.10
12477;DHT22;6303;51.504;6.300;2023-03-31T04:35:42;22.40;55.10
12477;DHT22;6303;51.504;6.300;2023-03-31T04:38:14;22.40;55.20
12477;DHT22;6303;51.504;6.300;2023-03-31T04:40:45;22.40;55.10
12477;DHT22;6303;51.504;6.300;2023-03-31T04:43:13;22.40;55.10
12477;DHT22;6303;51.504;6.300;2023-03-31T04:45:41;22.40;55.10
12477;DHT22;6303;51.504;6.300;2023-03-31T04:48:08;22.40;55.10
12477;DHT22;6303;51.504;6.300;2023-03-31T04:50:36;22.40;55.10
12477;DHT22;6303;51.504;6.300;2023-03-31T04:53:03;22.40;55.00
12477;DHT22;6303;51.504;6.300;2023-03-31T04:55:31;22.30;55.20
12477;DHT22;6303;51.504;6.300;2023-03-31T04:57:59;22.30;55.40
12477;DHT22;6303;51.504;6.300;2023-03-31T05:00:27;22.40;55.40
12477;DHT22;6303;51.504;6.300;2023-03-31T05:02:54;22.40;55.50
12477;DHT22;6303;51.504;6.300;2023-03-31T05:05:21;22.40;55.50
12477;DHT22;6303;51.504;6.300;2023-03-31T05:07:48;22.40;55.60
12477;DHT22;6303;51.504;6.300;2023-03-31T05:10:16;22.40;55.80
12477;DHT22;6303;51.504;6.300;2023-03-31T05:12:43;22.40;55.70
12477;DHT22;6303;51.504;6.300;2023-03-31T05:15:11;22.40;56.00
12477;DHT22;6303;51.504;6.300;2023-03-31T05:17:38;22.40;56.40
12477;DHT22;6303;51.504;6.300;2023-03-31T05:20:06;22.40;56.50
12477;DHT22;6303;51.504;6.300;2023-03-31T05:22:35;22.30;56.70
12477;DHT22;6303;51.504;6.300;2023-03-31T05:25:03;22.30;56.60
12477;DHT22;6303;51.504;6.300;2023-03-31T05:27:31;22.30;56.50
12477;DHT22;6303;51.504;6.300;2023-03-31T05:29:59;22.30;56.60
12477;DHT22;6303;51.504;6.300;2023-03-31T05:32:27;22.30;56.80
12477;DHT22;6303;51.504;6.300;2023-03-31T05:34:54;22.30;57.00
12477;DHT22;6303;51.504;6.300;2023-03-31T05:37:23;22.30;57.10
12477;DHT22;6303;51.504;6.300;2023-03-31T05:39:50;22.30;57.00
12477;DHT22;6303;51.504;6.300;2023-03-31T05:42:18;22.30;56.90
12477;DHT22;6303;51.504;6.300;2023-03-31T05:44:45;22.30;56.90
12477;DHT22;6303;51.504;6.300;2023-03-31T05:47:12;22.30;56.90
12477;DHT22;6303;51.504;6.300;2023-03-31T05:49:41;22.40;56.80
12477;DHT22;6303;51.504;6.300;2023-03-31T05:52:08;22.40;56.80
12477;DHT22;6303;51.504;6.300;2023-03-31T05:54:36;22.40;56.80
12477;DHT22;6303;51.504;6.300;2023-03-31T05:57:03;22.40;56.80
12477;DHT22;6303;51.504;6.300;2023-03-31T05:59:30;22.30;56.80
12477;DHT22;6303;51.504;6.300;2023-03-31T06:01:59;22.30;56.80
12477;DHT22;6303;51.504;6.300;2023-03-31T06:04:26;22.30;56.80
12477;DHT22;6303;51.504;6.300;2023-03-31T06:06:55;22.30;56.80
12477;DHT22;6303;51.504;6.300;2023-03-31T06:09:23;22.30;56.80
12477;DHT22;6303;51.504;6.300;2023-03-31T06:11:50;22.30;56.70
12477;DHT22;6303;51.504;6.300;2023-03-31T06:14:17;22.30;56.60
12477;DHT22;6303;51.504;6.300;2023-03-31T06:16:44;22.30;56.60
12477;DHT22;6303;51.504;6.300;2023-03-31T06:19:12;22.30;56.60
12477;DHT22;6303;51.504;6.300;2023-03-31T06:21:40;22.30;56.60
12477;DHT22;6303;51.504;6.300;2023-03-31T06:24:09;22.30;56.60
12477;DHT22;6303;51.504;6.300;2023-03-31T06:26:36;22.30;56.50
12477;DHT22;6303;51.504;6.300;2023-03-31T06:29:03;22.20;56.50
12477;DHT22;6303;51.504;6.300;2023-03-31T06:31:30;22.30;56.50
12477;DHT22;6303;51.504;6.300;2023-03-31T06:33:57;22.30;56.30
12477;DHT22;6303;51.504;6.300;2023-03-31T06:36:24;22.40;56.40
12477;DHT22;6303;51.504;6.300;2023-03-31T06:38:52;22.30;56.40
12477;DHT22;6303;51.504;6.300;2023-03-31T06:41:20;22.30;56.50
12477;DHT22;6303;51.504;6.300;2023-03-31T06:43:48;22.30;56.50
12477;DHT22;6303;51.504;6.300;2023-03-31T06:46:16;22.30;56.40
12477;DHT22;6303;51.504;6.300;2023-03-31T06:48:43;22.30;56.40
12477;DHT22;6303;51.504;6.300;2023-03-31T06:51:11;22.30;56.40
12477;DHT22;6303;51.504;6.300;2023-03-31T06:53:38;22.30;56.50
12477;DHT22;6303;51.504;6.300;2023-03-31T06:56:06;22.40;56.40
12477;DHT22;6303;51.504;6.300;2023-03-31T06:58:34;22.40;56.20
12477;DHT22;6303;51.504;6.300;2023-03-31T07:01:02;22.40;56.10
12477;DHT22;6303;51.504;6.300;2023-03-31T07:03:29;22.40;56.20
12477;DHT22;6303;51.504;6.300;2023-03-31T07:05:57;22.40;56.30
12477;DHT22;6303;51.504;6.300;2023-03-31T07:08:24;22.40;56.30
12477;DHT22;6303;51.504;6.300;2023-03-31T07:10:55;22.30;56.40
12477;DHT22;6303;51.504;6.300;2023-03-31T07:13:22;22.40;56.50
12477;DHT22;6303;51.504;6.300;2023-03-31T07:15:51;22.30;56.40
12477;DHT22;6303;51.504;6.300;2023-03-31T07:18:18;22.30;56.50
12477;DHT22;6303;51.504;6.300;2023-03-31T07:20:47;22.30;56.10
12477;DHT22;6303;51.504;6.300;2023-03-31T07:23:15;22.30;56.10
12477;DHT22;6303;51.504;6.300;2023-03-31T07:25:42;22.30;56.10
12477;DHT22;6303;51.504;6.300;2023-03-31T07:28:10;22.30;56.20
12477;DHT22;6303;51.504;6.300;2023-03-31T07:30:37;22.30;56.20
12477;DHT22;6303;51.504;6.300;2023-03-31T07:33:05;22.30;56.10
12477;DHT22;6303;51.504;6.300;2023-03-31T07:35:32;22.30;56.10
12477;DHT22;6303;51.504;6.300;2023-03-31T07:37:59;22.30;56.10
12477;DHT22;6303;51.504;6.300;2023-03-31T07:40:28;22.30;56.10
12477;DHT22;6303;51.504;6.300;2023-03-31T07:42:55;22.30;56.00
12477;DHT22;6303;51.504;6.300;2023-03-31T07:45:24;22.30;56.00
12477;DHT22;6303;51.504;6.300;2023-03-31T07:47:51;22.30;56.10
12477;DHT22;6303;51.504;6.300;2023-03-31T07:50:20;22.30;56.00
12477;DHT22;6303;51.504;6.300;2023-03-31T07:52:50;22.30;56.00
12477;DHT22;6303;51.504;6.300;2023-03-31T07:55:18;22.40;56.10
12477;DHT22;6303;51.504;6.300;2023-03-31T07:57:45;22.30;56.00
12477;DHT22;6303;51.504;6.300;2023-03-31T08:00:13;22.30;56.10
12477;DHT22;6303;51.504;6.300;2023-03-31T08:02:41;22.30;56.00
12477;DHT22;6303;51.504;6.300;2023-03-31T08:05:09;22.40;56.00
12477;DHT22;6303;51.504;6.300;2023-03-31T08:07:40;22.30;55.90
12477;DHT22;6303;51.504;6.300;2023-03-31T08:10:11;22.30;55.90
12477;DHT22;6303;51.504;6.300;2023-03-31T08:12:38;22.40;55.80
12477;DHT22;6303;51.504;6.300;2023-03-31T08:15:06;22.40;55.70
12477;DHT22;6303;51.504;6.300;2023-03-31T08:17:33;22.40;55.80
12477;DHT22;6303;51.504;6.300;2023-03-31T08:20:00;22.40;55.80
12477;DHT22;6303;51.504;6.300;2023-03-31T08:22:29;22.40;55.80
12477;DHT22;6303;51.504;6.300;2023-03-31T08:24:58;22.40;55.90
12477;DHT22;6303;51.504;6.300;2023-03-31T08:27:25;22.40;55.80
12477;DHT22;6303;51.504;6.300;2023-03-31T08:29:52;22.40;55.70
12477;DHT22;6303;51.504;6.300;2023-03-31T08:32:21;22.30;55.70
12477;DHT22;6303;51.504;6.300;2023-03-31T08:34:48;22.30;55.80
12477;DHT22;6303;51.504;6.300;2023-03-31T08:37:16;22.30;55.80
12477;DHT22;6303;51.504;6.300;2023-03-31T08:39:43;22.30;55.90
12477;DHT22;6303;51.504;6.300;2023-03-31T08:42:15;22.30;55.90
12477;DHT22;6303;51.504;6.300;2023-03-31T08:44:55;22.30;56.00
12477;DHT22;6303;51.504;6.300;2023-03-31T08:47:26;22.30;55.90
12477;DHT22;6303;51.504;6.300;2023-03-31T08:49:56;22.30;55.90
12477;DHT22;6303;51.504;6.300;2023-03-31T08:52:28;22.30;55.80
12477;DHT22;6303;51.504;6.300;2023-03-31T08:54:59;22.30;55.80
12477;DHT22;6303;51.504;6.300;2023-03-31T08:57:34;22.30;55.70
12477;DHT22;6303;51.504;6.300;2023-03-31T09:00:02;22.30;55.70
12477;DHT22;6303;51.504;6.300;2023-03-31T09:02:37;22.40;55.70
12477;DHT22;6303;51.504;6.300;2023-03-31T09:05:34;22.40;55.70
12477;DHT22;6303;51.504;6.300;2023-03-31T09:08:10;22.40;55.60
12477;DHT22;6303;51.504;6.300;2023-03-31T09:10:42;22.40;55.50
12477;DHT22;6303;51.504;6.300;2023-03-31T09:13:40;22.50;55.50
12477;DHT22;6303;51.504;6.300;2023-03-31T09:16:13;23.90;56.10
12477;DHT22;6303;51.504;6.300;2023-03-31T09:18:41;22.60;55.20
12477;DHT22;6303;51.504;6.300;2023-03-31T09:21:17;22.70;55.10
12477;DHT22;6303;51.504;6.300;2023-03-31T09:23:49;22.80;55.00
12477;DHT22;6303;51.504;6.300;2023-03-31T09:26:24;22.90;54.90
12477;DHT22;6303;51.504;6.300;2023-03-31T09:28:57;22.90;54.80
12477;DHT22;6303;51.504;6.300;2023-03-31T09:31:25;22.90;54.70
12477;DHT22;6303;51.504;6.300;2023-03-31T09:33:56;22.90;54.60
12477;DHT22;6303;51.504;6.300;2023-03-31T09:36:26;22.90;54.70
12477;DHT22;6303;51.504;6.300;2023-03-31T09:38:53;23.00;54.70
12477;DHT22;6303;51.504;6.300;2023-03-31T09:41:20;23.00;54.60
12477;DHT22;6303;51.504;6.300;2023-03-31T09:43:48;23.00;54.60
12477;DHT22;6303;51.504;6.300;2023-03-31T09:46:23;23.00;54.70
12477;DHT22;6303;51.504;6.300;2023-03-31T09:48:57;23.10;54.70
12477;DHT22;6303;51.504;6.300;2023-03-31T09:51:28;23.20;54.50
12477;DHT22;6303;51.504;6.300;2023-03-31T09:54:01;23.20;54.50
12477;DHT22;6303;51.504;6.300;2023-03-31T09:56:33;23.20;54.40
12477;DHT22;6303;51.504;6.300;2023-03-31T09:59:02;23.20;54.30
12477;DHT22;6303;51.504;6.300;2023-03-31T10:01:30;23.20;54.30
12477;DHT22;6303;51.504;6.300;2023-03-31T10:03:57;23.20;54.30
12477;DHT22;6303;51.504;6.300;2023-03-31T10:06:25;23.20;54.30
12477;DHT22;6303;51.504;6.300;2023-03-31T10:08:54;23.20;54.30
12477;DHT22;6303;51.504;6.300;2023-03-31T10:11:23;23.30;54.30
12477;DHT22;6303;51.504;6.300;2023-03-31T10:13:54;23.30;54.40
12477;DHT22;6303;51.504;6.300;2023-03-31T10:16:29;23.30;54.20
12477;DHT22;6303;51.504;6.300;2023-03-31T10:19:11;23.30;54.10
12477;DHT22;6303;51.504;6.300;2023-03-31T10:21:39;23.30;54.00
12477;DHT22;6303;51.504;6.300;2023-03-31T10:24:09;23.30;54.00
12477;DHT22;6303;51.504;6.300;2023-03-31T10:26:37;23.30;54.00
12477;DHT22;6303;51.504;6.300;2023-03-31T10:29:10;23.50;54.10
12477;DHT22;6303;51.504;6.300;2023-03-31T10:31:38;23.30;54.00
12477;DHT22;6303;51.504;6.300;2023-03-31T10:34:11;23.30;54.30
12477;DHT22;6303;51.504;6.300;2023-03-31T10:36:44;23.30;54.30
12477;DHT22;6303;51.504;6.300;2023-03-31T10:39:14;23.30;54.10
12477;DHT22;6303;51.504;6.300;2023-03-31T10:41:42;23.30;54.10
12477;DHT22;6303;51.504;6.300;2023-03-31T10:44:33;23.30;54.20
12477;DHT22;6303;51.504;6.300;2023-03-31T10:47:15;23.30;54.20
12477;DHT22;6303;51.504;6.300;2023-03-31T10:49:47;23.20;54.30
12477;DHT22;6303;51.504;6.300;2023-03-31T10:52:18;23.20;54.40
12477;DHT22;6303;51.504;6.300;2023-03-31T10:54:47;23.20;54.50
12477;DHT22;6303;51.504;6.300;2023-03-31T10:57:17;23.20;55.00
12477;DHT22;6303;51.504;6.300;2023-03-31T11:00:01;23.30;55.40
12477;DHT22;6303;51.504;6.300;2023-03-31T11:05:31;23.40;55.20
12477;DHT22;6303;51.504;6.300;2023-03-31T11:08:15;23.30;55.10
12477;DHT22;6303;51.504;6.300;2023-03-31T11:10:58;23.40;55.20
12477;DHT22;6303;51.504;6.300;2023-03-31T11:13:39;23.50;54.90
12477;DHT22;6303;51.504;6.300;2023-03-31T11:16:16;23.50;54.80
12477;DHT22;6303;51.504;6.300;2023-03-31T11:18:56;23.50;54.70
12477;DHT22;6303;51.504;6.300;2023-03-31T11:21:33;23.50;54.60
12477;DHT22;6303;51.504;6.300;2023-03-31T11:24:09;23.50;54.60
12477;DHT22;6303;51.504;6.300;2023-03-31T11:26:46;23.50;54.50
12477;DHT22;6303;51.504;6.300;2023-03-31T11:29:29;23.50;54.50
12477;DHT22;6303;51.504;6.300;2023-03-31T11:32:09;23.60;54.50
12477;DHT22;6303;51.504;6.300;2023-03-31T11:34:52;23.60;54.50
12477;DHT22;6303;51.504;6.300;2023-03-31T11:37:34;23.60;54.40
12477;DHT22;6303;51.504;6.300;2023-03-31T11:40:19;23.60;54.30
12477;DHT22;6303;51.504;6.300;2023-03-31T11:42:50;23.60;54.30
12477;DHT22;6303;51.504;6.300;2023-03-31T11:45:22;23.60;54.20
12477;DHT22;6303;51.504;6.300;2023-03-31T11:47:54;23.60;54.10
12477;DHT22;6303;51.504;6.300;2023-03-31T11:50:26;23.60;54.00
12477;DHT22;6303;51.504;6.300;2023-03-31T11:52:59;23.60;54.10
12477;DHT22;6303;51.504;6.300;2023-03-31T11:55:28;23.60;54.20
12477;DHT22;6303;51.504;6.300;2023-03-31T11:58:00;23.60;54.30
12477;DHT22;6303;51.504;6.300;2023-03-31T12:00:31;23.60;54.40
12477;DHT22;6303;51.504;6.300;2023-03-31T12:03:06;23.60;54.30
12477;DHT22;6303;51.504;6.300;2023-03-31T12:05:40;23.60;54.30
12477;DHT22;6303;51.504;6.300;2023-03-31T12:08:12;23.60;54.20
12477;DHT22;6303;51.504;6.300;2023-03-31T12:10:44;23.60;54.20
12477;DHT22;6303;51.504;6.300;2023-03-31T12:13:30;23.60;54.10
12477;DHT22;6303;51.504;6.300;2023-03-31T12:16:03;23.60;54.00
12477;DHT22;6303;51.504;6.300;2023-03-31T12:18:34;23.70;54.00
12477;DHT22;6303;51.504;6.300;2023-03-31T12:21:03;23.70;54.00
12477;DHT22;6303;51.504;6.300;2023-03-31T12:23:38;23.70;54.10
12477;DHT22;6303;51.504;6.300;2023-03-31T12:26:13;23.70;54.10
12477;DHT22;6303;51.504;6.300;2023-03-31T12:28:46;23.70;54.00
12477;DHT22;6303;51.504;6.300;2023-03-31T12:31:19;23.70;54.10
12477;DHT22;6303;51.504;6.300;2023-03-31T12:33:52;23.80;54.00
12477;DHT22;6303;51.504;6.300;2023-03-31T12:36:30;23.90;53.90
12477;DHT22;6303;51.504;6.300;2023-03-31T12:39:13;23.90;53.80
12477;DHT22;6303;51.504;6.300;2023-03-31T12:41:52;23.90;53.70
12477;DHT22;6303;51.504;6.300;2023-03-31T12:44:34;23.80;53.70
12477;DHT22;6303;51.504;6.300;2023-03-31T12:53:13;23.90;53.50
12477;DHT22;6303;51.504;6.300;2023-03-31T12:55:47;23.90;53.60
12477;DHT22;6303;51.504;6.300;2023-03-31T12:58:36;23.90;53.50
12477;DHT22;6303;51.504;6.300;2023-03-31T13:01:06;23.90;53.60
12477;DHT22;6303;51.504;6.300;2023-03-31T13:03:48;23.80;53.60
12477;DHT22;6303;51.504;6.300;2023-03-31T13:06:46;23.80;53.70
12477;DHT22;6303;51.504;6.300;2023-03-31T13:09:42;23.70;53.70
12477;DHT22;6303;51.504;6.300;2023-03-31T13:12:16;23.80;53.60
12477;DHT22;6303;51.504;6.300;2023-03-31T13:14:45;23.90;53.60
12477;DHT22;6303;51.504;6.300;2023-03-31T13:17:24;23.90;53.40
12477;DHT22;6303;51.504;6.300;2023-03-31T13:19:53;23.90;53.10
12477;DHT22;6303;51.504;6.300;2023-03-31T13:22:32;23.90;53.20
12477;DHT22;6303;51.504;6.300;2023-03-31T13:28:13;24.00;53.20
12477;DHT22;6303;51.504;6.300;2023-03-31T13:30:49;24.00;53.20
12477;DHT22;6303;51.504;6.300;2023-03-31T13:33:20;23.90;53.20
12477;DHT22;6303;51.504;6.300;2023-03-31T13:35:51;23.90;53.30
12477;DHT22;6303;51.504;6.300;2023-03-31T13:38:28;23.90;53.40
12477;DHT22;6303;51.504;6.300;2023-03-31T13:44:10;23.80;53.50
12477;DHT22;6303;51.504;6.300;2023-03-31T13:46:50;23.80;53.50
12477;DHT22;6303;51.504;6.300;2023-03-31T13:49:43;23.80;53.50
12477;DHT22;6303;51.504;6.300;2023-03-31T13:52:24;23.80;53.50
12477;DHT22;6303;51.504;6.300;2023-03-31T13:55:33;23.80;53.50
12477;DHT22;6303;51.504;6.300;2023-03-31T13:58:35;23.80;53.50
12477;DHT22;6303;51.504;6.300;2023-03-31T14:04:15;23.80;53.40
12477;DHT22;6303;51.504;6.300;2023-03-31T14:06:52;23.80;53.50
12477;DHT22;6303;51.504;6.300;2023-03-31T14:09:24;23.80;53.50
12477;DHT22;6303;51.504;6.300;2023-03-31T14:11:52;23.80;53.60
12477;DHT22;6303;51.504;6.300;2023-03-31T14:14:21;23.80;53.70
12477;DHT22;6303;51.504;6.300;2023-03-31T14:16:52;23.80;53.70
12477;DHT22;6303;51.504;6.300;2023-03-31T14:19:47;23.80;53.60
12477;DHT22;6303;51.504;6.300;2023-03-31T14:22:22;23.80;53.60
12477;DHT22;6303;51.504;6.300;2023-03-31T14:25:00;23.80;53.60
12477;DHT22;6303;51.504;6.300;2023-03-31T14:27:39;23.80;53.50
12477;DHT22;6303;51.504;6.300;2023-03-31T14:30:15;23.80;53.50
12477;DHT22;6303;51.504;6.300;2023-03-31T14:32:51;23.90;53.50
12477;DHT22;6303;51.504;6.300;2023-03-31T14:35:29;23.90;53.50
12477;DHT22;6303;51.504;6.300;2023-03-31T14:37:58;23.90;53.40
12477;DHT22;6303;51.504;6.300;2023-03-31T14:40:26;23.90;53.30
12477;DHT22;6303;51.504;6.300;2023-03-31T14:42:53;23.90;53.30
12477;DHT22;6303;51.504;6.300;2023-03-31T14:45:22;23.90;53.30
12477;DHT22;6303;51.504;6.300;2023-03-31T14:47:55;23.90;53.30
12477;DHT22;6303;51.504;6.300;2023-03-31T14:50:28;23.90;53.40
12477;DHT22;6303;51.504;6.300;2023-03-31T14:52:56;23.90;53.60
12477;DHT22;6303;51.504;6.300;2023-03-31T14:55:27;23.90;53.40
12477;DHT22;6303;51.504;6.300;2023-03-31T14:57:55;23.90;53.40
12477;DHT22;6303;51.504;6.300;2023-03-31T15:00:26;23.90;53.30
12477;DHT22;6303;51.504;6.300;2023-03-31T15:02:57;23.80;53.40
12477;DHT22;6303;51.504;6.300;2023-03-31T15:05:29;23.90;53.30
12477;DHT22;6303;51.504;6.300;2023-03-31T15:07:57;23.90;53.50
12477;DHT22;6303;51.504;6.300;2023-03-31T15:10:29;23.80;53.50
12477;DHT22;6303;51.504;6.300;2023-03-31T15:13:01;23.90;53.50
12477;DHT22;6303;51.504;6.300;2023-03-31T15:15:33;23.90;53.40
12477;DHT22;6303;51.504;6.300;2023-03-31T15:18:01;23.90;53.40
12477;DHT22;6303;51.504;6.300;2023-03-31T15:20:30;23.90;53.40
12477;DHT22;6303;51.504;6.300;2023-03-31T15:23:03;23.90;53.40
12477;DHT22;6303;51.504;6.300;2023-03-31T15:25:34;23.80;53.50
12477;DHT22;6303;51.504;6.300;2023-03-31T15:28:03;23.80;53.70
12477;DHT22;6303;51.504;6.300;2023-03-31T15:30:32;23.80;54.10
12477;DHT22;6303;51.504;6.300;2023-03-31T15:33:01;23.90;54.50
12477;DHT22;6303;51.504;6.300;2023-03-31T15:35:30;23.90;52.90
12477;DHT22;6303;51.504;6.300;2023-03-31T15:37:59;23.80;52.10
12477;DHT22;6303;51.504;6.300;2023-03-31T15:40:28;23.70;52.70
12477;DHT22;6303;51.504;6.300;2023-03-31T15:42:58;23.70;53.20
12477;DHT22;6303;51.504;6.300;2023-03-31T15:45:46;23.60;53.50
12477;DHT22;6303;51.504;6.300;2023-03-31T15:48:21;23.60;53.60
12477;DHT22;6303;51.504;6.300;2023-03-31T15:50:49;23.60;53.90
12477;DHT22;6303;51.504;6.300;2023-03-31T15:53:28;23.60;54.00
12477;DHT22;6303;51.504;6.300;2023-03-31T15:55:56;23.60;54.30
12477;DHT22;6303;51.504;6.300;2023-03-31T15:58:47;23.60;54.40
12477;DHT22;6303;51.504;6.300;2023-03-31T16:01:19;23.60;54.10
12477;DHT22;6303;51.504;6.300;2023-03-31T16:03:47;23.60;54.20
12477;DHT22;6303;51.504;6.300;2023-03-31T16:06:23;23.50;54.20
12477;DHT22;6303;51.504;6.300;2023-03-31T16:08:56;23.50;54.30
12477;DHT22;6303;51.504;6.300;2023-03-31T16:11:27;23.40;54.30
12477;DHT22;6303;51.504;6.300;2023-03-31T16:14:04;23.40;54.40
12477;DHT22;6303;51.504;6.300;2023-03-31T16:16:33;23.40;54.40
12477;DHT22;6303;51.504;6.300;2023-03-31T16:19:04;23.40;54.50
12477;DHT22;6303;51.504;6.300;2023-03-31T16:21:39;23.40;54.50
12477;DHT22;6303;51.504;6.300;2023-03-31T16:24:07;23.30;54.60
12477;DHT22;6303;51.504;6.300;2023-03-31T16:26:36;23.30;54.60
12477;DHT22;6303;51.504;6.300;2023-03-31T16:29:04;23.40;54.60
12477;DHT22;6303;51.504;6.300;2023-03-31T16:31:33;23.40;54.70
12477;DHT22;6303;51.504;6.300;2023-03-31T16:34:04;23.60;54.40
12477;DHT22;6303;51.504;6.300;2023-03-31T16:36:31;23.70;54.90
12477;DHT22;6303;51.504;6.300;2023-03-31T16:38:59;23.70;54.10
12477;DHT22;6303;51.504;6.300;2023-03-31T16:41:30;23.70;54.00
12477;DHT22;6303;51.504;6.300;2023-03-31T16:43:58;23.70;54.10
12477;DHT22;6303;51.504;6.300;2023-03-31T16:46:25;23.70;54.20